createdAt,value
2023-01-22T00:00:17.447Z,100492.38
2023-01-22T00:03:20.204Z,100506.25
2023-01-22T00:06:23.685Z,100504.63
2023-01-22T00:09:26.392Z,100520.16
2023-01-22T00:12:28.766Z,100520.94
2023-01-22T00:15:31.476Z,100527.44
2023-01-22T00:18:34.636Z,100516.59
2023-01-22T00:21:37.608Z,100534.00
2023-01-22T00:24:40.434Z,100523.59
2023-01-22T00:27:43.510Z,100527.34
2023-01-22T00:30:45.851Z,100532.28
2023-01-22T00:33:49.402Z,100529.03
2023-01-22T00:36:51.713Z,100508.44
2023-01-22T00:39:54.360Z,100539.13
2023-01-22T00:42:56.680Z,100534.78
2023-01-22T00:46:00.141Z,100514.94
2023-01-22T00:49:03.653Z,100514.97
2023-01-22T00:52:06.312Z,100513.91
2023-01-22T00:55:09.055Z,100545.37
2023-01-22T00:58:11.711Z,100539.91
2023-01-22T01:01:17.993Z,100520.94
2023-01-22T01:04:20.623Z,100520.94
2023-01-22T01:07:24.265Z,100526.94
2023-01-22T01:10:26.890Z,100538.84
2023-01-22T01:13:32.528Z,100536.69
2023-01-22T01:16:35.241Z,100531.44
2023-01-22T01:19:38.139Z,100552.69
2023-01-22T01:22:41.037Z,100540.78
2023-01-22T01:25:43.508Z,100504.25
2023-01-22T01:28:46.090Z,100527.50
2023-01-22T01:31:53.220Z,100552.75
2023-01-22T01:34:55.933Z,100535.16
2023-01-22T01:37:58.252Z,100523.47
2023-01-22T01:41:01.169Z,100561.22
2023-01-22T01:44:30.622Z,100547.12
2023-01-22T01:47:35.810Z,100574.78
2023-01-22T01:50:42.324Z,100542.72
2023-01-22T01:53:47.004Z,100566.06
2023-01-22T01:56:54.210Z,100562.78
2023-01-22T01:59:59.123Z,100562.78
2023-01-22T02:03:03.100Z,100513.72
2023-01-22T02:06:07.448Z,100541.38
2023-01-22T02:09:09.664Z,100529.50
2023-01-22T02:12:12.688Z,100558.00
2023-01-22T02:15:16.450Z,100551.50
2023-01-22T02:18:19.127Z,100534.19
2023-01-22T02:21:39.202Z,100522.47
2023-01-22T02:24:44.112Z,100514.56
2023-01-22T02:27:46.673Z,100548.81
2023-01-22T02:30:49.870Z,100527.12
2023-01-22T02:33:52.414Z,100543.94
2023-01-22T02:36:56.116Z,100549.37
2023-01-22T02:39:58.546Z,100543.41
2023-01-22T02:43:01.788Z,100510.84
2023-01-22T02:46:05.186Z,100515.19
2023-01-22T02:49:08.076Z,100535.78
2023-01-22T02:52:10.663Z,100513.81
2023-01-22T02:55:14.297Z,100529.22
2023-01-22T02:58:17.454Z,100536.88
2023-01-22T03:01:24.902Z,100534.41
2023-01-22T03:04:28.831Z,100501.56
2023-01-22T03:07:42.374Z,100507.00
2023-01-22T03:10:45.507Z,100500.50
2023-01-22T03:14:07.579Z,100494.00
2023-01-22T03:17:28.680Z,100514.56
2023-01-22T03:20:50.334Z,100503.47
2023-01-22T03:23:54.746Z,100493.97
2023-01-22T03:26:57.386Z,100515.69
2023-01-22T03:29:59.759Z,100496.12
2023-01-22T03:33:04.432Z,100488.56
2023-01-22T03:36:10.137Z,100488.47
2023-01-22T03:39:14.337Z,100498.91
2023-01-22T03:42:17.738Z,100486.69
2023-01-22T03:45:20.398Z,100482.06
2023-01-22T03:48:23.640Z,100509.16
2023-01-22T03:51:26.432Z,100507.22
2023-01-22T03:54:28.771Z,100502.31
2023-01-22T03:57:31.793Z,100481.69
2023-01-22T04:00:34.190Z,100476.28
2023-01-22T04:03:38.162Z,100515.31
2023-01-22T04:06:40.885Z,100516.69
2023-01-22T04:09:43.689Z,100514.19
2023-01-22T04:12:46.310Z,100485.19
2023-01-22T04:15:49.442Z,100509.88
2023-01-22T04:18:53.043Z,100507.69
2023-01-22T04:21:56.090Z,100474.56
2023-01-22T04:24:58.536Z,100491.59
2023-01-22T04:28:01.653Z,100498.59
2023-01-22T04:31:04.816Z,100486.75
2023-01-22T04:34:12.924Z,100486.75
2023-01-22T04:37:15.749Z,100503.00
2023-01-22T04:40:18.627Z,100481.31
2023-01-22T04:43:21.252Z,100506.75
2023-01-22T04:46:23.983Z,100489.91
2023-01-22T04:49:27.551Z,100497.47
2023-01-22T04:52:30.827Z,100480.72
2023-01-22T04:55:33.664Z,100504.03
2023-01-22T04:58:36.645Z,100480.16
2023-01-22T05:01:39.534Z,100476.88
2023-01-22T05:04:42.268Z,100473.91
2023-01-22T05:07:44.641Z,100485.56
2023-01-22T05:10:47.399Z,100517.00
2023-01-22T05:13:51.128Z,100530.88
2023-01-22T05:16:56.676Z,100505.94
2023-01-22T05:19:59.109Z,100506.22
2023-01-22T05:23:01.742Z,100534.94
2023-01-22T05:26:04.714Z,100516.53
2023-01-22T05:29:10.455Z,100543.62
2023-01-22T05:32:13.835Z,100558.56
2023-01-22T05:35:16.911Z,100524.16
2023-01-22T05:38:20.156Z,100533.34
2023-01-22T05:41:23.914Z,100529.88
2023-01-22T05:44:27.070Z,100575.47
2023-01-22T05:47:30.105Z,100577.88
2023-01-22T05:50:32.882Z,100581.12
2023-01-22T05:53:36.574Z,100580.34
2023-01-22T05:56:38.911Z,100589.28
2023-01-22T05:59:41.630Z,100579.00
2023-01-22T06:02:44.416Z,100578.97
2023-01-22T06:05:47.899Z,100612.38
2023-01-22T06:08:52.483Z,100611.25
2023-01-22T06:11:55.718Z,100578.12
2023-01-22T06:14:58.181Z,100611.81
2023-01-22T06:18:01.684Z,100629.56
2023-01-22T06:21:06.711Z,100630.37
2023-01-22T06:24:10.263Z,100608.41
2023-01-22T06:27:12.687Z,100615.50
2023-01-22T06:30:16.342Z,100620.63
2023-01-22T06:33:19.400Z,100629.63
2023-01-22T06:36:22.225Z,100663.06
2023-01-22T06:39:24.801Z,100633.22
2023-01-22T06:42:30.717Z,100650.87
2023-01-22T06:45:33.034Z,100620.16
2023-01-22T06:48:37.222Z,100664.44
2023-01-22T06:51:40.368Z,100666.66
2023-01-22T06:54:43.026Z,100661.16
2023-01-22T06:57:45.419Z,100654.63
2023-01-22T07:00:48.306Z,100637.28
2023-01-22T07:03:51.333Z,100624.81
2023-01-22T07:06:54.439Z,100687.28
2023-01-22T07:09:56.901Z,100661.19
2023-01-22T07:12:59.606Z,100675.78
2023-01-22T07:16:03.658Z,100660.03
2023-01-22T07:19:06.495Z,100676.63
2023-01-22T07:22:08.830Z,100667.63
2023-01-22T07:25:11.451Z,100700.19
2023-01-22T07:28:15.131Z,100708.91
2023-01-22T07:31:17.636Z,100702.41
2023-01-22T07:34:19.915Z,100712.97
2023-01-22T07:37:23.456Z,100696.44
2023-01-22T07:40:26.198Z,100701.63
2023-01-22T07:43:29.417Z,100705.69
2023-01-22T07:46:31.823Z,100707.56
2023-01-22T07:49:34.797Z,100740.66
2023-01-22T07:52:37.116Z,100734.91
2023-01-22T07:55:40.713Z,100721.87
2023-01-22T07:58:43.031Z,100743.00
2023-01-22T08:01:45.615Z,100733.41
2023-01-22T08:04:48.280Z,100724.72
2023-01-22T08:07:51.012Z,100704.91
2023-01-22T08:10:59.939Z,100753.50
2023-01-22T08:14:02.470Z,100751.84
2023-01-22T08:17:05.044Z,100739.53
2023-01-22T08:20:08.425Z,100746.56
2023-01-22T08:23:10.998Z,100743.31
2023-01-22T08:26:13.521Z,100778.03
2023-01-22T08:29:17.325Z,100776.91
2023-01-22T08:32:19.956Z,100789.09
2023-01-22T08:35:24.506Z,100783.88
2023-01-22T08:38:26.873Z,100764.22
2023-01-22T08:41:29.544Z,100793.00
2023-01-22T08:44:31.897Z,100813.69
2023-01-22T08:47:34.736Z,100811.31
2023-01-22T08:50:37.114Z,100808.47
2023-01-22T08:53:39.722Z,100789.78
2023-01-22T08:56:42.141Z,100794.53
2023-01-22T08:59:49.628Z,100792.06
2023-01-22T09:03:02.209Z,100813.47
2023-01-22T09:06:05.004Z,100830.50
2023-01-22T09:09:07.829Z,100808.34
2023-01-22T09:12:10.550Z,100826.87
2023-01-22T09:15:12.996Z,100842.75
2023-01-22T09:18:15.652Z,100836.75
2023-01-22T09:21:18.464Z,100844.94
2023-01-22T09:24:21.125Z,100785.09
2023-01-22T09:27:23.421Z,100818.03
2023-01-22T09:30:27.617Z,100843.31
2023-01-22T09:33:30.032Z,100813.91
2023-01-22T09:36:32.655Z,100845.94
2023-01-22T09:39:35.021Z,100824.16
2023-01-22T09:42:40.537Z,100828.78
2023-01-22T09:45:43.694Z,100860.66
2023-01-22T09:48:51.365Z,100843.91
2023-01-22T09:51:56.765Z,100861.81
2023-01-22T09:54:59.854Z,100851.22
2023-01-22T09:58:06.094Z,100864.78
2023-01-22T10:01:09.006Z,100862.38
2023-01-22T10:04:23.173Z,100840.34
2023-01-22T10:07:37.875Z,100848.22
2023-01-22T10:10:41.093Z,100868.09
2023-01-22T10:13:43.697Z,100837.91
2023-01-22T10:16:46.403Z,100856.94
2023-01-22T10:20:12.449Z,100864.25
2023-01-22T10:23:20.503Z,100869.50
2023-01-22T10:26:46.386Z,100879.59
2023-01-22T10:30:22.139Z,100855.38
2023-01-22T10:33:27.568Z,100885.88
2023-01-22T10:36:31.546Z,100885.34
2023-01-22T10:39:46.187Z,100889.13
2023-01-22T10:43:04.142Z,100890.28
2023-01-22T10:46:17.609Z,100865.25
2023-01-22T10:49:24.324Z,100862.31
2023-01-22T10:52:42.414Z,100897.94
2023-01-22T10:55:52.121Z,100875.66
2023-01-22T10:58:55.408Z,100888.16
2023-01-22T11:02:03.111Z,100867.16
2023-01-22T11:05:26.865Z,100890.31
2023-01-22T11:08:51.533Z,100885.88
2023-01-22T11:12:05.847Z,100881.50
2023-01-22T11:15:45.809Z,100895.06
2023-01-22T11:19:14.179Z,100897.28
2023-01-22T11:22:45.144Z,100898.34
2023-01-22T11:26:21.896Z,100890.19
2023-01-22T11:29:37.742Z,100877.72
2023-01-22T11:32:52.430Z,100909.28
2023-01-22T11:36:04.938Z,100912.53
2023-01-22T11:39:26.835Z,100910.06
2023-01-22T11:42:36.016Z,100896.81
2023-01-22T11:45:47.828Z,100906.00
2023-01-22T11:49:02.785Z,100898.37
2023-01-22T11:52:27.411Z,100901.59
2023-01-22T11:55:47.261Z,100884.19
2023-01-22T11:58:54.239Z,100901.53
2023-01-22T12:02:19.235Z,100914.38
2023-01-22T12:05:37.140Z,100915.22
2023-01-22T12:09:23.301Z,100918.50
2023-01-22T12:12:47.949Z,100931.59
2023-01-22T12:16:03.524Z,100925.88
2023-01-22T12:19:07.381Z,100934.38
2023-01-22T12:22:24.033Z,100913.78
2023-01-22T12:25:54.506Z,100932.19
2023-01-22T12:29:17.339Z,100937.94
2023-01-22T12:32:23.040Z,100940.47
2023-01-22T12:35:27.871Z,100945.37
2023-01-22T12:38:50.674Z,100958.19
2023-01-22T12:42:24.823Z,100957.38
2023-01-22T12:46:03.857Z,100935.06
2023-01-22T12:49:08.819Z,100953.22
2023-01-22T12:52:31.944Z,100954.59
2023-01-22T12:55:35.896Z,100963.09
2023-01-22T12:58:41.463Z,100966.59
2023-01-22T13:01:44.000Z,100963.88
2023-01-22T13:04:46.861Z,100941.09
2023-01-22T13:08:00.771Z,100975.31
2023-01-22T13:11:13.824Z,100978.56
2023-01-22T13:14:19.022Z,100981.34
2023-01-22T13:17:25.913Z,100967.75
2023-01-22T13:20:30.208Z,100994.41
2023-01-22T13:23:36.510Z,100986.81
2023-01-22T13:26:39.368Z,101000.44
2023-01-22T13:33:11.538Z,101010.81
2023-01-22T13:36:15.000Z,101013.00
2023-01-22T13:39:37.525Z,100992.38
2023-01-22T13:42:45.277Z,101015.22
2023-01-22T13:45:49.280Z,101012.75
2023-01-22T13:49:10.976Z,101021.72
2023-01-22T13:52:18.762Z,101036.53
2023-01-22T13:55:23.487Z,101046.38
2023-01-22T13:58:48.430Z,101043.69
2023-01-22T14:01:51.920Z,101046.94
2023-01-22T14:04:54.659Z,101059.75
2023-01-22T14:08:12.293Z,101028.97
2023-01-22T14:11:15.631Z,101048.03
2023-01-22T14:14:19.872Z,101062.25
2023-01-22T14:17:23.544Z,101052.41
2023-01-22T14:20:25.901Z,101070.66
2023-01-22T14:23:29.063Z,101064.41
2023-01-22T14:26:31.529Z,101048.62
2023-01-22T14:29:34.201Z,101055.75
2023-01-22T14:32:36.528Z,101090.09
2023-01-22T14:35:39.173Z,101095.81
2023-01-22T14:38:41.524Z,101095.25
2023-01-22T14:41:44.403Z,101074.34
2023-01-22T14:44:47.219Z,101096.59
2023-01-22T14:47:51.766Z,101094.16
2023-01-22T14:50:54.119Z,101103.72
2023-01-22T14:53:58.942Z,101086.56
2023-01-22T14:57:03.927Z,101077.09
2023-01-22T15:00:07.828Z,101078.16
2023-01-22T15:03:10.462Z,101099.41
2023-01-22T15:06:13.102Z,101055.28
2023-01-22T15:09:15.371Z,101118.16
2023-01-22T15:12:18.404Z,101100.75
2023-01-22T15:15:25.311Z,101120.91
2023-01-22T15:18:27.983Z,101131.84
2023-01-22T15:21:30.348Z,101137.59
2023-01-22T15:24:33.067Z,101133.75
2023-01-22T15:27:35.432Z,101111.47
2023-01-22T15:30:38.106Z,101134.06
2023-01-22T15:33:40.494Z,101117.16
2023-01-22T15:36:43.098Z,101140.84
2023-01-22T15:39:45.485Z,101137.59
2023-01-22T15:42:48.258Z,101139.53
2023-01-22T15:45:50.611Z,101139.28
2023-01-22T15:48:54.246Z,101158.91
2023-01-22T15:51:56.635Z,101169.81
2023-01-22T15:54:59.422Z,101157.88
2023-01-22T15:58:01.806Z,101169.31
2023-01-22T16:01:04.849Z,101139.91
2023-01-22T16:04:08.043Z,101148.56
2023-01-22T16:07:10.416Z,101177.44
2023-01-22T16:10:13.799Z,101146.38
2023-01-22T16:13:16.192Z,101169.25
2023-01-22T16:16:25.669Z,101178.56
2023-01-22T16:19:28.065Z,101165.22
2023-01-22T16:22:30.749Z,101170.44
2023-01-22T16:25:33.289Z,101185.16
2023-01-22T16:28:37.087Z,101171.00
2023-01-22T16:31:39.676Z,101212.75
2023-01-22T16:34:42.415Z,101172.91
2023-01-22T16:37:45.057Z,101174.50
2023-01-22T16:40:47.741Z,101202.84
2023-01-22T16:43:55.847Z,101183.00
2023-01-22T16:47:00.759Z,101187.66
2023-01-22T16:50:03.185Z,101191.47
2023-01-22T16:53:05.795Z,101183.56
2023-01-22T16:56:08.190Z,101192.84
2023-01-22T16:59:11.325Z,101213.28
2023-01-22T17:02:16.106Z,101225.56
2023-01-22T17:05:18.763Z,101224.72
2023-01-22T17:08:21.166Z,101225.28
2023-01-22T17:11:24.074Z,101215.78
2023-01-22T17:14:28.569Z,101213.88
2023-01-22T17:17:31.187Z,101233.75
2023-01-22T17:20:33.727Z,101218.78
2023-01-22T17:23:36.446Z,101217.44
2023-01-22T17:26:42.040Z,101243.59
2023-01-22T17:29:45.025Z,101244.69
2023-01-22T17:32:47.804Z,101223.97
2023-01-22T17:35:51.390Z,101216.06
2023-01-22T17:38:56.523Z,101218.22
2023-01-22T17:41:59.103Z,101223.97
2023-01-22T17:45:01.780Z,101239.53
2023-01-22T17:48:04.568Z,101263.56
2023-01-22T17:51:12.216Z,101242.03
2023-01-22T17:54:14.903Z,101269.28
2023-01-22T17:57:17.265Z,101263.31
2023-01-22T18:00:20.607Z,101260.03
2023-01-22T18:03:23.263Z,101268.25
2023-01-22T18:06:25.745Z,101281.88
2023-01-22T18:09:28.406Z,101257.34
2023-01-22T18:12:30.728Z,101264.44
2023-01-22T18:15:33.480Z,101269.88
2023-01-22T18:18:36.273Z,101282.97
2023-01-22T18:21:39.374Z,101260.59
2023-01-22T18:24:41.699Z,101278.88
2023-01-22T18:27:44.409Z,101257.63
2023-01-22T18:30:47.268Z,101265.56
2023-01-22T18:33:50.685Z,101284.37
2023-01-22T18:36:53.007Z,101287.34
2023-01-22T18:39:55.624Z,101268.28
2023-01-22T18:42:58.105Z,101261.19
2023-01-22T18:46:06.011Z,101285.16
2023-01-22T18:49:12.552Z,101272.66
2023-01-22T18:52:15.230Z,101279.19
2023-01-22T18:55:17.932Z,101257.41
2023-01-22T18:58:34.295Z,101298.59
2023-01-22T19:01:38.377Z,101294.53
2023-01-22T19:04:41.030Z,101312.81
2023-01-22T19:07:43.396Z,101299.44
2023-01-22T19:10:46.072Z,101270.81
2023-01-22T19:13:49.383Z,101268.34
2023-01-22T19:16:53.548Z,101265.56
2023-01-22T19:19:56.183Z,101240.47
2023-01-22T19:23:00.197Z,101244.84
2023-01-22T19:26:12.654Z,101237.50
2023-01-22T19:29:22.170Z,101232.31
2023-01-22T19:32:28.889Z,101268.34
2023-01-22T19:35:31.570Z,101261.81
2023-01-22T19:38:33.961Z,101293.47
2023-01-22T19:41:37.638Z,101305.47
2023-01-22T19:44:41.706Z,101313.12
2023-01-22T19:47:44.385Z,101315.31
2023-01-22T19:50:46.761Z,101306.56
2023-01-22T19:53:49.666Z,101301.69
2023-01-22T19:56:53.062Z,101306.03
2023-01-22T19:59:58.238Z,101297.31
2023-01-22T20:03:05.989Z,101306.34
2023-01-22T20:06:10.593Z,101327.03
2023-01-22T20:09:13.575Z,101299.22
2023-01-22T20:12:16.371Z,101329.53
2023-01-22T20:15:19.546Z,101325.16
2023-01-22T20:18:22.727Z,101321.31
2023-01-22T20:21:27.212Z,101307.13
2023-01-22T20:24:30.097Z,101330.06
2023-01-22T20:27:32.432Z,101305.50
2023-01-22T20:30:35.244Z,101325.16
2023-01-22T20:33:37.815Z,101331.16
2023-01-22T20:36:40.414Z,101339.34
2023-01-22T20:39:42.758Z,101340.16
2023-01-22T20:42:45.819Z,101342.88
2023-01-22T20:46:00.315Z,101300.59
2023-01-22T20:49:03.299Z,101330.34
2023-01-22T20:52:05.966Z,101332.25
2023-01-22T20:55:10.420Z,101308.22
2023-01-22T20:58:12.797Z,101340.44
2023-01-22T21:01:19.275Z,101312.31
2023-01-22T21:04:25.438Z,101315.84
2023-01-22T21:07:28.380Z,101324.31
2023-01-22T21:10:30.758Z,101333.62
2023-01-22T21:13:34.030Z,101349.44
2023-01-22T21:16:38.952Z,101320.22
2023-01-22T21:19:44.174Z,101329.50
2023-01-22T21:22:46.748Z,101343.72
2023-01-22T21:25:49.363Z,101325.44
2023-01-22T21:29:00.587Z,101334.44
2023-01-22T21:32:03.501Z,101319.41
2023-01-22T21:35:06.238Z,101338.78
2023-01-22T21:38:08.856Z,101302.19
2023-01-22T21:41:14.510Z,101346.44
2023-01-22T21:44:38.296Z,101347.50
2023-01-22T21:47:40.770Z,101351.34
2023-01-22T21:50:43.864Z,101319.94
2023-01-22T21:53:46.249Z,101322.41
2023-01-22T21:56:49.741Z,101350.78
2023-01-22T21:59:52.091Z,101348.87
2023-01-22T22:02:55.255Z,101353.78
2023-01-22T22:06:02.008Z,101322.94
2023-01-22T22:09:08.567Z,101327.59
2023-01-22T22:12:11.611Z,101361.44
2023-01-22T22:15:13.924Z,101351.06
2023-01-22T22:18:16.586Z,101352.16
2023-01-22T22:21:18.916Z,101349.16
2023-01-22T22:24:21.802Z,101322.66
2023-01-22T22:27:27.003Z,101318.28
2023-01-22T22:30:30.453Z,101346.44
2023-01-22T22:33:32.901Z,101316.91
2023-01-22T22:36:36.038Z,101342.59
2023-01-22T22:39:39.131Z,101346.44
2023-01-22T22:42:41.872Z,101346.44
2023-01-22T22:45:44.400Z,101339.31
2023-01-22T22:48:48.212Z,101337.12
2023-01-22T22:51:50.575Z,101310.38
2023-01-22T22:54:53.276Z,101323.22
2023-01-22T22:57:55.654Z,101298.66
2023-01-22T23:00:58.391Z,101306.00
2023-01-22T23:04:01.447Z,101326.22
2023-01-22T23:07:04.184Z,101318.28
2023-01-22T23:10:07.809Z,101326.22
2023-01-22T23:13:12.387Z,101312.28
2023-01-22T23:16:18.305Z,101322.91
2023-01-22T23:19:26.680Z,101298.59
2023-01-22T23:22:29.006Z,101341.75
2023-01-22T23:25:31.657Z,101346.91
2023-01-22T23:28:34.192Z,101349.94
2023-01-22T23:31:39.274Z,101348.03
2023-01-22T23:34:41.695Z,101358.94
2023-01-22T23:37:44.411Z,101357.03
2023-01-22T23:40:47.019Z,101321.53
2023-01-22T23:43:50.260Z,101330.00
2023-01-22T23:46:52.646Z,101338.72
2023-01-22T23:49:55.964Z,101322.88
2023-01-22T23:52:58.397Z,101336.53
2023-01-22T23:56:03.226Z,101341.16
2023-01-22T23:59:05.605Z,101322.88
